• Join FlightAware (Why Join?)
  • Login
  • US Flag 
02:35PM EDT


 

Airport Tracker/Info


-or-


 

Live Flight TrackerFlight Track Log ✈ FLG3861 ✈ 28-Mar-2014 ✈ KDTW - KBGM

Flight Track Log - Related Links

Times and Time Zones

All times are in EDT time to prevent confusion due to time zone crossing. See the FLG3861 flight status page for this flight to view local times or setup timezone preferences in your user account.

Time Position Orientation Groundspeed Altitude Reporting Facility
EDT Latitude Longitude Course Direction KTS MPH feet Rate Location/Type
09:37PM 42.2261 -83.3531 33° Northeast 164 189 1,400  Level Cleveland Center
09:38PM 42.2597 -83.3239 33° Northeast 193 222 3,700 2,280 Climbing Cleveland Center
09:39PM 42.2719 -83.2589 76° East 211 243 5,500 2,160 Climbing Cleveland Center
09:39PM 42.2725 -83.2383 88° East 257 296 5,900 2,640 Climbing Cleveland Center
09:40PM 42.2792 -83.1533 84° East 264 304 8,200 2,280 Climbing Cleveland Center
09:41PM 42.2861 -83.0408 85° East 294 338 10,500 1,560 Climbing Cleveland Center
09:42PM 42.2956 -82.9028 85° East 370 426 11,400 1,440 Climbing Cleveland Center
09:43PM 42.3183 -82.7603 78° East 386 444 13,500 1,800 Climbing Cleveland Center
09:44PM 42.3422 -82.6131 78° East 397 457 15,200 1,800 Climbing Cleveland Center
09:45PM 42.3686 -82.4306 79° East 413 475 17,300 1,560 Climbing Cleveland Center
09:46PM 42.3608 -82.2731 94° East 422 486 18,500 1,140 Climbing Cleveland Center
09:47PM 42.3539 -82.1019 93° East 435 501 19,700 960 Climbing Cleveland Center
09:48PM 42.3467 -81.9294 93° East 454 522 20,500 780 Climbing Cleveland Center
09:49PM 42.3386 -81.7511 93° East 465 535 21,300 600 Climbing Cleveland Center
09:50PM 42.3306 -81.5672 93° East 482 555 21,800 480 Climbing Cleveland Center
09:51PM 42.3219 -81.3814 94° East 486 559 22,400 540 Climbing Cleveland Center
09:52PM 42.3122 -81.1892 94° East 501 577 23,000 540 Climbing Cleveland Center
09:53PM 42.3014 -80.9961 94° East 505 581 23,600 480 Climbing Cleveland Center
09:54PM 42.2922 -80.8006 94° East 513 590 24,100 480 Climbing Cleveland Center
09:55PM 42.2933 -80.6067 89° East 514 592 24,700 540 Climbing Cleveland Center
09:56PM 42.2933 -80.4081 90° East 522 601 25,300 480 Climbing Cleveland Center
09:57PM 42.2931 -80.2078 90° East 525 604 25,800 480 Climbing Cleveland Center
09:58PM 42.2919 -79.9803 90° East 525 604 26,400 480 Climbing Cleveland Center
09:59PM 42.2917 -79.7931 90° East 526 605 26,900 240 Climbing Cleveland Center
10:00PM 42.2894 -79.5925 91° East 535 616 27,000  Climbing Cleveland Center
10:01PM 42.2886 -79.3886 90° East 542 624 27,000  Level Cleveland Center
10:02PM 42.2861 -79.1822 91° East 548 631 27,000  Level Cleveland Center
10:03PM 42.2828 -78.9756 91° East 550 633 27,000  Level Cleveland Center
10:04PM 42.2811 -78.7444 90° East 553 636 27,000  Level Cleveland Center
10:05PM 42.2781 -78.5356 91° East 554 638 27,000  Level Cleveland Center
10:06PM 42.2742 -78.3275 91° East 555 639 27,000 -60 Level Cleveland Center
10:07PM 42.2706 -78.1194 91° East 556 640 26,900 -600 Descending Cleveland Center
10:08PM 42.2653 -77.8733 92° East 555 639 25,800 -1,320 Descending Cleveland Center
10:09PM 42.2606 -77.6725 92° East 548 631 24,300 -1,620 Descending Cleveland Center
10:10PM 42.2558 -77.4839 92° East 514 592 22,500 -1,920 Descending Cleveland Center
10:11PM 42.2514 -77.3036 92° East 491 565 20,400 -2,100 Descending Cleveland Center
10:12PM 42.2458 -77.1286 92° East 473 544 18,200 -2,460 Descending Cleveland Center
10:13PM 42.2433 -76.9978 91° East 468 539 16,300 -2,820 Descending New York Center
10:14PM 42.2386 -76.8431 92° East 439 505 13,600 -2,580 Descending New York Center
10:15PM 42.2328 -76.7111 93° East 415 478 11,200 -1,800 Descending New York Center
10:16PM 42.2275 -76.5678 93° East 376 433 10,000 -1,440 Descending New York Center
10:17PM 42.2225 -76.4525 93° East 337 388 8,400 -1,800 Descending New York Center
10:18PM 42.1983 -76.3467 107° East 306 352 6,500 -1,500 Descending New York Center
10:19PM 42.1633 -76.2486 116° Southeast 295 339 5,500 -780 Descending New York Center
10:20PM 42.1283 -76.1508 116° Southeast 295 339 5,000 -360 Descending New York Center
10:21PM 42.0931 -76.0556 116° Southeast 295 339 4,800 -420 Descending New York Center
10:22PM 42.0572 -75.9744 121° Southeast 278 320 4,200 -420 Descending New York Center
10:23PM 42.0244 -75.9133 126° Southeast 245 282 4,000 -120 Descending New York Center
10:24PM 42.0047 -75.8364 109° East 197 227 4,000 -60 Level New York Center
10:25PM 42.0500 -75.8483 349° North 72 83 3,900 -60 Descending New York Center
10:26PM 42.0900 -75.8850 326° Northwest 117 135 3,900 -300 Level New York Center
10:27PM 42.1283 -75.9158 329° Northwest 148 170 3,400 -540 Descending New York Center
10:29PM 42.2000 -75.9667 334° Northwest  Level FlightAware Approximate
10:36PM 42.2084 -75.9796 334° Northwest  Level Estimated